Time;durP1;ratioP1;P1;durP2;ratioP2;P2;SDS_P1;SDS_P2;PMS_P1;PMS_P2;Temp;Humidity;BMP_temperature;BMP_pressure;BME280_temperature;BME280_humidity;BME280_pressure;Samples;Min_cycle;Max_cycle;Signal;HPM_P1;HPM_P2
2022/11/08 00:01:32;;;;;;;4.40;1.40;;;;;;;11.02;85.68;100897.53;5085274;28;20062;-77
2022/11/08 00:03:59;;;;;;;4.43;1.40;;;;;;;11.02;85.54;100901.88;5082789;28;20028;-77
2022/11/08 00:14:36;;;;;;;3.42;1.25;;;;;;;11.03;86.26;100901.84;5086250;28;20081;-77
2022/11/08 00:17:02;;;;;;;4.32;1.27;;;;;;;11.03;86.18;100901.84;5085218;28;20036;-77
2022/11/08 00:19:27;;;;;;;6.13;1.70;;;;;;;11.02;86.12;100897.53;5086264;28;20464;-77
2022/11/08 00:21:52;;;;;;;3.92;1.27;;;;;;;11.02;86.30;100904.47;5084416;28;20030;-77
2022/11/08 00:24:17;;;;;;;4.43;1.40;;;;;;;10.97;86.30;100896.78;5082340;28;20399;-77
2022/11/08 00:26:43;;;;;;;4.47;1.40;;;;;;;10.95;86.48;100895.97;5085430;28;20111;-77
2022/11/08 00:29:08;;;;;;;3.63;1.33;;;;;;;10.92;86.12;100891.72;5085145;28;20032;-77
2022/11/08 00:31:33;;;;;;;4.18;1.52;;;;;;;10.90;86.48;100892.66;5084486;28;20066;-77
2022/11/08 00:33:59;;;;;;;5.53;1.55;;;;;;;10.86;86.21;100891.03;5083186;28;20817;-77
2022/11/08 00:36:25;;;;;;;4.63;1.27;;;;;;;10.83;86.61;100886.75;5083023;28;20095;-77
2022/11/08 00:38:50;;;;;;;4.35;1.20;;;;;;;10.80;86.77;100893.78;5084776;28;20430;-77
2022/11/08 00:41:15;;;;;;;4.25;1.38;;;;;;;10.76;86.74;100885.19;5085470;28;20028;-77
2022/11/08 00:43:40;;;;;;;3.88;1.40;;;;;;;10.73;86.85;100891.34;5084624;28;20051;-77
2022/11/08 00:46:06;;;;;;;5.47;1.48;;;;;;;10.70;86.81;100891.44;5084578;28;20490;-77
2022/11/08 00:48:31;;;;;;;3.75;1.30;;;;;;;10.68;86.93;100885.41;5083510;28;20103;-78
2022/11/08 00:51:04;;;;;;;5.28;1.30;;;;;;;10.66;87.10;100874.19;5085574;28;20463;-78
2022/11/08 00:53:29;;;;;;;4.60;1.15;;;;;;;10.65;87.01;100874.22;5084595;28;20077;-78
2022/11/08 00:56:03;;;;;;;5.18;1.30;;;;;;;10.62;87.09;100878.59;5084995;28;20413;-78
2022/11/08 00:58:28;;;;;;;4.80;1.20;;;;;;;10.60;87.03;100879.53;5083624;28;20474;-77
2022/11/08 01:00:54;;;;;;;5.10;1.70;;;;;;;10.57;87.08;100877.88;5085089;28;20118;-77
2022/11/08 01:03:20;;;;;;;2.97;1.40;;;;;;;10.52;87.53;100871.06;5083901;28;20030;-77
2022/11/08 01:05:47;;;;;;;7.43;1.77;;;;;;;10.52;87.58;100871.91;5083666;28;20596;-77
2022/11/08 01:08:13;;;;;;;4.18;1.80;;;;;;;10.52;87.56;100868.47;5083286;28;20028;-77
2022/11/08 01:10:43;;;;;;;7.28;1.70;;;;;;;10.50;87.72;100867.66;5085341;28;20074;-78
2022/11/08 01:13:08;;;;;;;6.68;1.60;;;;;;;10.48;87.86;100863.34;5083697;28;20043;-77
2022/11/08 01:15:35;;;;;;;3.83;1.52;;;;;;;10.47;87.90;100859.03;5079289;28;20042;-78
2022/11/08 01:18:02;;;;;;;8.38;2.25;;;;;;;10.46;88.23;100867.72;5084964;28;20032;-77
2022/11/08 01:20:27;;;;;;;4.53;1.50;;;;;;;10.46;88.02;100872.94;5084732;28;20455;-78
2022/11/08 01:22:52;;;;;;;8.10;1.80;;;;;;;10.45;88.19;100866.00;5083976;28;20035;-77
2022/11/08 01:25:18;;;;;;;7.40;1.90;;;;;;;10.44;88.01;100868.66;5082150;28;20054;-78
2022/11/08 01:27:43;;;;;;;7.53;1.70;;;;;;;10.43;88.18;100864.34;5072553;28;20472;-78
2022/11/08 01:30:09;;;;;;;4.45;1.75;;;;;;;10.42;87.94;100860.88;5069901;28;20036;-77
2022/11/08 01:32:34;;;;;;;6.45;2.10;;;;;;;10.40;88.40;100862.69;5060354;28;20033;-77
2022/11/08 01:35:00;;;;;;;5.63;1.90;;;;;;;10.38;88.08;100856.66;5071902;28;20486;-77
2022/11/08 01:37:25;;;;;;;5.13;1.50;;;;;;;10.39;88.14;100860.13;5072473;28;20027;-77
2022/11/08 01:39:50;;;;;;;4.30;1.70;;;;;;;10.36;88.53;100845.41;5072443;28;20078;-77
2022/11/08 01:42:15;;;;;;;3.58;1.48;;;;;;;10.36;88.58;100855.81;5072524;28;20391;-77
2022/11/08 01:45:10;;;;;;;4.57;1.70;;;;;;;10.35;88.29;100843.72;5072283;28;20111;-77
2022/11/08 01:47:36;;;;;;;7.00;1.52;;;;;;;10.33;88.31;100841.13;5072280;28;20032;-77
2022/11/08 01:50:15;;;;;;;4.80;1.70;;;;;;;10.33;88.32;100829.88;5072053;28;20043;-77
2022/11/08 01:52:52;;;;;;;5.70;1.70;;;;;;;10.32;88.51;100841.19;5070804;28;20400;-77
2022/11/08 01:55:24;;;;;;;4.38;1.50;;;;;;;10.32;88.67;100838.56;5072132;28;20448;-78
2022/11/08 01:57:59;;;;;;;5.93;1.75;;;;;;;10.30;88.78;100825.63;5072251;28;20033;-77
2022/11/08 02:00:24;;;;;;;7.25;2.10;;;;;;;10.32;88.78;100830.78;5072361;28;20107;-77
2022/11/08 02:02:59;;;;;;;4.88;1.52;;;;;;;10.32;88.74;100815.16;5072200;28;20522;-77
2022/11/08 02:05:25;;;;;;;3.45;1.38;;;;;;;10.31;88.53;100808.25;5071966;28;20024;-77
2022/11/08 02:07:56;;;;;;;4.53;1.67;;;;;;;10.31;88.69;100805.66;5072052;28;20383;-77
2022/11/08 02:10:25;;;;;;;5.47;1.70;;;;;;;10.31;88.64;100803.94;5070814;28;20412;-77
2022/11/08 02:12:53;;;;;;;4.43;1.50;;;;;;;10.29;88.70;100800.50;5071935;28;20501;-77
2022/11/08 02:15:22;;;;;;;5.03;1.40;;;;;;;10.29;88.72;100791.84;5072026;28;20032;-77
2022/11/08 02:17:48;;;;;;;3.90;1.30;;;;;;;10.30;88.55;100788.34;5074560;28;20103;-77
2022/11/08 02:20:13;;;;;;;3.65;1.58;;;;;;;10.30;88.91;100785.75;5075171;28;20166;-77
2022/11/08 02:22:47;;;;;;;4.53;1.50;;;;;;;10.28;89.04;100787.53;5074831;28;20132;-77
2022/11/08 02:25:13;;;;;;;6.25;1.70;;;;;;;10.27;88.69;100780.63;5075415;28;20028;-77
2022/11/08 02:27:38;;;;;;;3.90;1.58;;;;;;;10.27;88.73;100775.41;5075458;28;20082;-77
2022/11/08 02:30:04;;;;;;;5.45;1.50;;;;;;;10.25;88.76;100777.19;5075488;28;20035;-77
2022/11/08 02:32:39;;;;;;;4.95;1.60;;;;;;;10.24;88.72;100781.56;5075128;28;20024;-77
2022/11/08 02:35:07;;;;;;;6.85;1.70;;;;;;;10.23;88.77;100779.03;5075245;28;20063;-77
2022/11/08 02:37:32;;;;;;;5.10;1.25;;;;;;;10.22;88.63;100770.34;5075311;28;20052;-78
2022/11/08 02:39:57;;;;;;;3.30;1.40;;;;;;;10.21;88.77;100765.19;5075276;28;20066;-78
2022/11/08 02:42:23;;;;;;;4.25;1.42;;;;;;;10.17;89.02;100765.28;5075116;28;20028;-77
2022/11/08 02:44:48;;;;;;;4.85;1.58;;;;;;;10.16;88.98;100758.38;5073778;28;20031;-77
2022/11/08 02:47:14;;;;;;;2.92;1.38;;;;;;;10.14;89.07;100760.13;5074837;28;20460;-77
2022/11/08 02:49:40;;;;;;;4.60;1.40;;;;;;;10.14;88.73;100754.09;5075005;28;20079;-77
2022/11/08 02:52:05;;;;;;;7.75;1.40;;;;;;;10.13;88.87;100748.03;5074639;28;20033;-77
2022/11/08 02:54:31;;;;;;;3.17;1.48;;;;;;;10.13;88.99;100740.25;5075006;28;20040;-78
2022/11/08 02:56:56;;;;;;;6.25;1.55;;;;;;;10.12;88.99;100738.53;5074833;28;20016;-77
2022/11/08 02:59:21;;;;;;;3.90;1.30;;;;;;;10.12;88.85;100733.31;5074942;28;20051;-77
2022/11/08 03:01:46;;;;;;;4.18;1.50;;;;;;;10.12;88.77;100728.13;5074411;28;20039;-77
2022/11/08 03:04:12;;;;;;;3.70;1.38;;;;;;;10.11;88.95;100726.41;5074783;28;20487;-77
2022/11/08 03:06:37;;;;;;;3.85;1.40;;;;;;;10.11;88.73;100729.03;5074141;28;20028;-77
2022/11/08 03:09:03;;;;;;;6.32;1.23;;;;;;;10.12;88.86;100722.09;5074413;28;20028;-77
2022/11/08 03:11:28;;;;;;;2.42;1.27;;;;;;;10.12;88.52;100727.28;5074438;28;20055;-77
2022/11/08 03:13:53;;;;;;;3.38;1.60;;;;;;;10.10;88.56;100719.50;5074519;28;20333;-77
2022/11/08 03:16:19;;;;;;;3.47;1.35;;;;;;;10.10;88.47;100719.50;5074341;28;20418;-78
2022/11/08 03:18:44;;;;;;;4.50;1.65;;;;;;;10.10;88.65;100714.31;5072619;28;20062;-77
2022/11/08 03:21:09;;;;;;;2.03;1.15;;;;;;;10.09;88.55;100710.00;5074146;28;20430;-78
2022/11/08 03:23:34;;;;;;;3.35;1.40;;;;;;;10.09;88.52;100701.38;5074419;28;20037;-77
2022/11/08 03:26:01;;;;;;;4.13;1.27;;;;;;;10.08;88.34;100694.47;5074075;28;20037;-77
2022/11/08 03:28:27;;;;;;;7.45;1.60;;;;;;;10.08;88.29;100686.66;5072817;28;20059;-77
2022/11/08 03:30:52;;;;;;;3.25;1.38;;;;;;;10.07;88.22;100683.22;5074003;28;20059;-77
2022/11/08 03:33:19;;;;;;;5.07;1.40;;;;;;;10.06;88.15;100683.25;5074121;28;20028;-77
2022/11/08 03:35:44;;;;;;;3.38;1.27;;;;;;;10.03;88.09;100687.63;5074103;28;20055;-77
2022/11/08 03:38:10;;;;;;;3.17;1.50;;;;;;;10.00;87.92;100676.47;5072486;28;20056;-77
2022/11/08 03:40:35;;;;;;;2.63;1.30;;;;;;;10.00;87.66;100681.66;5074174;28;20115;-77
2022/11/08 03:43:00;;;;;;;2.88;1.30;;;;;;;9.97;87.85;100672.22;5073965;28;20024;-77
2022/11/08 03:45:26;;;;;;;4.13;1.30;;;;;;;9.96;87.90;100680.03;5073492;28;20037;-77
2022/11/08 03:47:51;;;;;;;4.68;1.38;;;;;;;9.93;87.83;100674.91;5073798;28;20029;-78
2022/11/08 03:50:16;;;;;;;4.60;1.20;;;;;;;9.93;87.66;100669.72;5073865;28;20064;-77
2022/11/08 03:52:48;;;;;;;1.85;1.17;;;;;;;9.91;87.93;100669.78;5073560;28;20028;-77
2022/11/08 03:55:15;;;;;;;3.85;1.35;;;;;;;9.90;87.63;100654.22;5073644;28;20468;-77
2022/11/08 03:57:42;;;;;;;2.95;1.40;;;;;;;9.86;87.71;100650.84;5073773;28;20028;-77
2022/11/08 04:00:09;;;;;;;2.50;1.08;;;;;;;9.84;87.63;100640.50;5073654;28;20493;-77
2022/11/08 04:02:34;;;;;;;4.15;1.35;;;;;;;9.82;87.63;100636.25;5073133;28;20040;-77
2022/11/08 04:05:00;;;;;;;4.88;1.40;;;;;;;9.81;87.40;100624.97;5073503;28;20028;-77
2022/11/08 04:07:27;;;;;;;3.90;1.10;;;;;;;9.78;87.44;100625.06;5073513;28;20115;-77
2022/11/08 04:09:53;;;;;;;2.97;1.23;;;;;;;9.77;87.17;100618.16;5073172;28;20036;-77
2022/11/08 04:15:14;;;;;;;4.63;1.27;;;;;;;9.75;87.37;100616.50;5073320;28;20047;-77
2022/11/08 04:23:15;;;;;;;3.53;1.15;;;;;;;9.70;87.14;100603.63;5073554;28;20082;-77
2022/11/08 04:25:40;;;;;;;4.78;1.20;;;;;;;9.68;86.97;100590.66;5072921;28;20086;-77
2022/11/08 04:28:06;;;;;;;3.35;1.17;;;;;;;9.68;86.89;100589.84;5072844;28;20040;-77
2022/11/08 04:30:32;;;;;;;3.03;1.13;;;;;;;9.68;86.89;100585.47;5071900;28;20031;-77
2022/11/08 04:33:01;;;;;;;2.13;1.10;;;;;;;9.67;86.72;100596.75;5073116;28;20028;-77
2022/11/08 04:35:28;;;;;;;3.92;1.20;;;;;;;9.69;86.71;100587.19;5072612;28;20108;-78
2022/11/08 04:37:58;;;;;;;3.70;1.20;;;;;;;9.68;86.40;100585.47;5072386;28;20020;-77
2022/11/08 04:40:23;;;;;;;4.07;1.27;;;;;;;9.70;86.29;100580.25;5072805;28;20017;-77
2022/11/08 04:42:48;;;;;;;2.17;0.90;;;;;;;9.71;86.03;100576.75;5072995;28;20032;-77
2022/11/08 04:45:14;;;;;;;2.72;1.02;;;;;;;9.72;86.07;100570.69;5072542;28;20451;-77
2022/11/08 04:47:39;;;;;;;5.10;1.10;;;;;;;9.71;85.69;100556.81;5072807;28;20021;-77
2022/11/08 04:50:05;;;;;;;3.92;1.15;;;;;;;9.71;85.82;100559.41;5072804;28;20021;-77
2022/11/08 04:52:30;;;;;;;3.30;1.20;;;;;;;9.71;85.66;100561.19;5072578;28;20033;-77
2022/11/08 04:54:55;;;;;;;3.55;1.20;;;;;;;9.70;85.03;100562.91;5072725;28;20131;-77
2022/11/08 04:57:20;;;;;;;4.35;1.10;;;;;;;9.71;85.16;100558.59;5072853;28;20028;-77
2022/11/08 04:59:46;;;;;;;5.13;1.13;;;;;;;9.69;85.15;100547.38;5072588;28;20024;-77
2022/11/08 05:02:11;;;;;;;2.08;0.93;;;;;;;9.69;84.79;100552.56;5072210;28;20028;-77
2022/11/08 05:04:36;;;;;;;3.15;0.98;;;;;;;9.69;84.70;100530.03;5072567;28;20024;-77
2022/11/08 05:07:01;;;;;;;4.00;0.98;;;;;;;9.68;84.64;100530.09;5072708;28;20379;-77
2022/11/08 05:09:27;;;;;;;4.45;1.40;;;;;;;9.67;84.50;100528.38;5072483;28;20028;-77
2022/11/08 05:11:52;;;;;;;3.90;1.20;;;;;;;9.68;84.45;100527.50;5072418;28;20483;-77
2022/11/08 05:14:17;;;;;;;2.75;1.10;;;;;;;9.67;84.52;100533.56;5072621;28;20086;-77
2022/11/08 05:16:42;;;;;;;2.40;1.30;;;;;;;9.66;84.37;100524.91;5072373;28;20523;-77
2022/11/08 05:19:08;;;;;;;2.35;1.00;;;;;;;9.64;84.33;100515.47;5072459;28;20027;-77
2022/11/08 05:24:17;;;;;;;2.92;1.00;;;;;;;9.64;83.92;100518.06;5072509;28;20494;-77
2022/11/08 05:26:44;;;;;;;3.30;0.93;;;;;;;9.63;83.72;100513.75;5072473;28;20111;-77
2022/11/08 05:29:11;;;;;;;3.00;1.00;;;;;;;9.63;83.96;100518.97;5072221;28;20468;-77
2022/11/08 05:31:37;;;;;;;2.67;1.05;;;;;;;9.63;83.61;100519.81;5071910;28;20032;-77
2022/11/08 05:34:02;;;;;;;3.35;1.00;;;;;;;9.63;83.29;100521.56;5072427;28;20033;-77
2022/11/08 05:36:28;;;;;;;2.28;1.05;;;;;;;9.62;83.44;100518.13;5071858;28;20056;-77
2022/11/08 05:38:53;;;;;;;2.60;1.10;;;;;;;9.62;83.28;100505.13;5071213;28;20052;-77
2022/11/08 05:41:22;;;;;;;3.65;1.08;;;;;;;9.62;83.18;100512.06;5071469;28;20048;-77
2022/11/08 05:43:49;;;;;;;3.05;1.10;;;;;;;9.61;83.17;100507.75;5072393;28;20020;-77
2022/11/08 05:46:16;;;;;;;4.25;1.23;;;;;;;9.60;83.14;100503.44;5072239;28;20025;-77
2022/11/08 05:48:42;;;;;;;2.40;1.10;;;;;;;9.60;83.20;100495.66;5071226;28;20399;-77
2022/11/08 05:51:08;;;;;;;2.53;1.20;;;;;;;9.57;83.28;100502.63;5071676;28;20039;-77
2022/11/08 05:53:33;;;;;;;4.38;1.10;;;;;;;9.56;83.22;100500.94;5075277;28;20051;-78
2022/11/08 05:56:01;;;;;;;2.30;1.27;;;;;;;9.57;82.92;100513.03;5072259;28;20047;-77
2022/11/08 05:58:26;;;;;;;2.38;1.17;;;;;;;9.58;83.00;100503.50;5075562;28;20051;-76
2022/11/08 06:01:06;;;;;;;3.17;1.20;;;;;;;9.59;82.91;100500.03;5075415;28;20013;-75
2022/11/08 06:03:31;;;;;;;2.33;1.10;;;;;;;9.59;82.98;100500.03;5071700;28;20032;-75
2022/11/08 06:06:02;;;;;;;3.10;1.25;;;;;;;9.61;82.92;100512.94;5075106;28;20559;-75
2022/11/08 06:08:27;;;;;;;3.28;1.40;;;;;;;9.61;82.85;100497.38;5075132;28;20380;-75
2022/11/08 06:10:52;;;;;;;2.38;1.20;;;;;;;9.62;82.92;100504.25;5075108;28;20490;-74
2022/11/08 06:13:18;;;;;;;4.53;1.60;;;;;;;9.62;83.12;100499.94;5071928;28;20036;-74
2022/11/08 06:15:43;;;;;;;2.65;1.30;;;;;;;9.65;82.66;100501.59;5074972;28;20085;-75
2022/11/08 06:18:09;;;;;;;3.05;1.40;;;;;;;9.63;82.60;100496.44;5074920;28;20411;-75
2022/11/08 06:20:35;;;;;;;3.65;1.50;;;;;;;9.64;82.74;100497.28;5074330;28;20044;-76
2022/11/08 06:23:00;;;;;;;4.30;1.40;;;;;;;9.64;82.58;100492.09;5075419;28;20081;-75
2022/11/08 06:25:25;;;;;;;4.55;1.65;;;;;;;9.64;82.49;100489.50;5075134;28;20099;-75
2022/11/08 06:27:51;;;;;;;2.22;1.35;;;;;;;9.64;82.49;100486.91;5075175;28;20089;-75
2022/11/08 06:30:16;;;;;;;2.60;1.45;;;;;;;9.64;82.48;100492.97;5075103;28;20103;-76
2022/11/08 06:32:41;;;;;;;3.55;1.63;;;;;;;9.65;82.53;100505.03;5075317;28;20498;-75
2022/11/08 06:35:07;;;;;;;4.22;1.63;;;;;;;9.65;82.44;100493.81;5074741;28;20058;-75
2022/11/08 06:37:32;;;;;;;3.03;1.42;;;;;;;9.65;82.34;100499.00;5075223;28;20020;-75
2022/11/08 06:39:58;;;;;;;3.13;1.55;;;;;;;9.64;82.26;100503.34;5075266;28;20460;-75
2022/11/08 06:42:24;;;;;;;3.70;1.70;;;;;;;9.65;82.21;100493.81;5074793;28;20056;-75
2022/11/08 06:44:49;;;;;;;3.15;1.60;;;;;;;9.64;82.09;100508.53;5075137;28;20503;-75
2022/11/08 06:47:14;;;;;;;2.95;1.67;;;;;;;9.64;82.15;100497.28;5074922;28;20032;-75
2022/11/08 06:49:40;;;;;;;3.70;1.60;;;;;;;9.63;82.34;100496.44;5075033;28;20020;-75
2022/11/08 06:52:05;;;;;;;4.05;1.50;;;;;;;9.63;82.19;100505.97;5074780;28;20114;-75
2022/11/08 06:54:30;;;;;;;3.63;1.40;;;;;;;9.64;81.95;100502.47;5074881;28;20032;-75
2022/11/08 06:56:59;;;;;;;4.72;1.50;;;;;;;9.66;82.00;100490.31;5075020;28;20376;-76
2022/11/08 06:59:24;;;;;;;3.15;1.35;;;;;;;9.66;81.97;100498.09;5073639;28;20475;-75
2022/11/08 07:01:50;;;;;;;2.90;1.40;;;;;;;9.67;82.52;100486.81;5074553;28;20048;-75
2022/11/08 07:04:15;;;;;;;3.60;1.60;;;;;;;9.65;82.11;100499.84;5074692;28;20447;-75
2022/11/08 07:06:40;;;;;;;2.78;1.40;;;;;;;9.66;81.82;100490.31;5074783;28;20039;-75
2022/11/08 07:09:05;;;;;;;4.40;1.60;;;;;;;9.67;81.63;100492.00;5074723;28;20490;-75
2022/11/08 07:11:31;;;;;;;5.28;1.50;;;;;;;9.68;81.60;100506.72;5074188;28;20123;-75
2022/11/08 07:13:56;;;;;;;4.20;1.52;;;;;;;9.69;81.66;100496.25;5074615;28;20037;-76
2022/11/08 07:16:21;;;;;;;3.60;1.67;;;;;;;9.72;81.99;100500.53;5073599;28;20020;-75
2022/11/08 07:18:46;;;;;;;4.03;1.50;;;;;;;9.72;81.66;100503.13;5074115;28;20408;-75
2022/11/08 07:21:12;;;;;;;2.88;1.40;;;;;;;9.74;81.29;100514.31;5074516;28;20062;-75
2022/11/08 07:23:37;;;;;;;2.88;1.50;;;;;;;9.77;81.53;100513.41;5074552;28;20028;-75
2022/11/08 07:26:04;;;;;;;2.85;1.50;;;;;;;9.78;81.44;100508.16;5074316;28;20438;-75
2022/11/08 07:28:30;;;;;;;4.38;1.63;;;;;;;9.80;81.32;100505.53;5073883;28;20107;-75
2022/11/08 07:31:00;;;;;;;2.95;1.70;;;;;;;9.82;81.14;100501.13;5074302;28;20055;-75
2022/11/08 07:33:26;;;;;;;3.38;1.63;;;;;;;9.83;81.16;100498.47;5074354;28;20028;-76
2022/11/08 07:35:51;;;;;;;3.47;1.50;;;;;;;9.85;81.04;100504.50;5074145;28;20032;-75
2022/11/08 07:38:16;;;;;;;4.63;1.70;;;;;;;9.86;81.37;100498.41;5073863;28;20029;-75
2022/11/08 07:40:41;;;;;;;3.65;1.60;;;;;;;9.87;80.83;100494.91;5072689;28;20402;-76
2022/11/08 07:43:07;;;;;;;2.90;1.45;;;;;;;9.90;80.60;100490.53;5074050;28;20051;-75
2022/11/08 07:45:32;;;;;;;3.97;1.45;;;;;;;9.92;80.76;100491.31;5074048;28;20035;-75
2022/11/08 07:48:04;;;;;;;2.72;1.60;;;;;;;9.94;80.72;100500.78;5073561;28;20033;-76
2022/11/08 07:50:30;;;;;;;3.58;1.65;;;;;;;9.95;80.39;100497.28;5073598;28;20035;-75
2022/11/08 07:52:55;;;;;;;5.13;1.70;;;;;;;9.98;80.45;100496.34;5073923;28;20029;-75
2022/11/08 07:55:20;;;;;;;3.17;1.70;;;;;;;10.01;80.14;100488.47;5072182;28;20032;-75
2022/11/08 07:57:46;;;;;;;3.55;1.63;;;;;;;10.04;79.69;100490.97;5072288;28;20502;-75
2022/11/08 08:00:12;;;;;;;3.83;1.83;;;;;;;10.06;80.08;100496.13;5073464;28;20073;-75
2022/11/08 08:02:38;;;;;;;4.82;1.67;;;;;;;10.09;79.92;100494.28;5073714;28;20023;-75
2022/11/08 08:05:04;;;;;;;3.58;1.70;;;;;;;10.13;79.83;100490.69;5073252;28;20413;-76
2022/11/08 08:07:29;;;;;;;5.32;1.65;;;;;;;10.15;79.08;100488.06;5072396;28;20038;-75
2022/11/08 08:09:54;;;;;;;3.05;1.60;;;;;;;10.17;79.39;100489.72;5073547;28;20111;-75
2022/11/08 08:12:19;;;;;;;3.42;1.80;;;;;;;10.21;79.45;100487.84;5073276;28;20040;-75
2022/11/08 08:14:45;;;;;;;4.18;1.98;;;;;;;10.25;78.68;100484.28;5072440;28;20116;-75
2022/11/08 08:17:10;;;;;;;3.13;1.55;;;;;;;10.28;78.56;100488.53;5073489;28;20020;-74
2022/11/08 08:19:35;;;;;;;3.05;1.70;;;;;;;10.32;78.69;100500.53;5073310;28;20442;-75
2022/11/08 08:22:01;;;;;;;4.82;1.70;;;;;;;10.35;78.25;100495.25;5072021;28;20040;-75
2022/11/08 08:24:26;;;;;;;3.70;1.67;;;;;;;10.38;78.20;100489.09;5072889;28;20434;-75
2022/11/08 08:26:52;;;;;;;2.47;1.50;;;;;;;10.43;77.79;100498.50;5073058;28;20032;-75
2022/11/08 08:29:17;;;;;;;2.58;1.42;;;;;;;10.45;77.28;100496.69;5073378;28;20029;-75
2022/11/08 08:31:42;;;;;;;3.00;1.60;;;;;;;10.48;77.29;100491.41;5073188;28;20522;-75
2022/11/08 08:34:07;;;;;;;4.70;1.65;;;;;;;10.53;77.22;100506.84;5072788;28;20032;-75
2022/11/08 08:36:33;;;;;;;3.80;1.73;;;;;;;10.56;77.28;100504.16;5073016;28;20051;-75
2022/11/08 08:38:58;;;;;;;4.50;1.67;;;;;;;10.59;77.14;100509.28;5071799;28;20021;-75
2022/11/08 08:41:23;;;;;;;3.50;1.50;;;;;;;10.63;76.68;100510.03;5072945;28;20384;-75
2022/11/08 08:43:48;;;;;;;2.78;1.50;;;;;;;10.66;76.54;100507.34;5072491;28;20039;-75
2022/11/08 08:46:14;;;;;;;4.38;1.40;;;;;;;10.70;77.02;100515.88;5072357;28;20473;-75
2022/11/08 08:48:39;;;;;;;2.67;1.38;;;;;;;10.72;76.04;100524.50;5072806;28;20033;-75
2022/11/08 08:51:04;;;;;;;4.20;1.40;;;;;;;10.76;76.45;100529.56;5073012;28;20033;-75
2022/11/08 08:53:30;;;;;;;5.57;1.60;;;;;;;10.80;75.56;100517.31;5072258;28;20035;-74
2022/11/08 08:55:55;;;;;;;3.38;1.50;;;;;;;10.87;75.55;100517.97;5067983;28;20040;-76
2022/11/08 08:58:21;;;;;;;3.22;1.55;;;;;;;10.90;75.41;100515.28;5080654;28;20044;-77
2022/11/08 09:00:46;;;;;;;2.90;1.50;;;;;;;10.97;75.69;100502.91;5079465;28;20153;-76
2022/11/08 09:03:12;;;;;;;3.22;1.33;;;;;;;11.01;75.08;100496.69;5085481;28;20754;-76
2022/11/08 09:05:42;;;;;;;2.55;1.42;;;;;;;11.06;75.45;100489.56;5081809;28;20051;-77
2022/11/08 09:08:13;;;;;;;2.55;1.35;;;;;;;11.11;74.49;100479.00;5082807;28;20115;-77
2022/11/08 09:10:38;;;;;;;3.92;1.40;;;;;;;11.15;74.04;100480.59;5084824;28;20028;-77
2022/11/08 09:13:03;;;;;;;3.42;1.40;;;;;;;11.16;74.30;100479.69;5084484;28;20101;-77
2022/11/08 09:15:29;;;;;;;3.30;1.30;;;;;;;11.18;73.55;100480.50;5084565;28;20020;-77
2022/11/08 09:17:55;;;;;;;3.28;1.33;;;;;;;11.24;74.90;100469.88;5084245;28;20028;-77
2022/11/08 09:20:21;;;;;;;2.83;1.30;;;;;;;11.26;74.77;100457.66;5085240;28;20514;-77
2022/11/08 09:22:47;;;;;;;2.72;1.40;;;;;;;11.31;74.74;100466.16;5085175;28;20029;-77
2022/11/08 09:25:12;;;;;;;4.00;1.33;;;;;;;11.36;74.65;100464.25;5084030;28;20081;-77
2022/11/08 09:27:37;;;;;;;3.65;1.23;;;;;;;11.42;74.30;100473.59;5087362;28;20035;-77
2022/11/08 09:30:03;;;;;;;5.32;1.40;;;;;;;11.47;73.69;100482.09;5089056;28;20024;-77
2022/11/08 09:32:29;;;;;;;2.75;1.20;;;;;;;11.51;73.68;100477.63;5086723;28;20047;-77
2022/11/08 09:34:54;;;;;;;3.25;1.40;;;;;;;11.58;73.63;100481.72;5088458;28;20027;-77
2022/11/08 09:37:21;;;;;;;2.33;1.13;;;;;;;11.62;72.63;100470.25;5088790;28;20043;-77
2022/11/08 09:39:46;;;;;;;3.72;1.42;;;;;;;11.68;72.11;100472.66;5088789;28;21363;-77
2022/11/08 09:42:30;;;;;;;2.60;1.38;;;;;;;11.74;73.49;100463.75;5088840;28;20035;-77
2022/11/08 09:45:21;;;;;;;3.72;1.50;;;;;;;11.82;73.52;100460.88;5088182;28;20552;-77
2022/11/08 09:47:56;;;;;;;4.45;1.20;;;;;;;11.86;72.44;100467.69;5089027;28;20496;-76
2022/11/08 09:50:22;;;;;;;2.90;1.20;;;;;;;11.92;72.23;100472.66;5088129;28;20486;-76
2022/11/08 09:52:59;;;;;;;2.88;1.27;;;;;;;12.00;72.08;100475.03;5088697;28;20062;-76
2022/11/08 09:55:35;;;;;;;3.85;1.05;;;;;;;12.08;71.12;100487.78;5087860;28;20039;-77
2022/11/08 09:58:12;;;;;;;2.55;1.10;;;;;;;12.14;70.72;100480.56;5086018;28;20024;-76
2022/11/08 10:00:39;;;;;;;3.00;1.20;;;;;;;12.22;71.03;100480.25;5088274;28;20024;-76
2022/11/08 10:03:04;;;;;;;2.40;1.30;;;;;;;12.27;69.88;100480.94;5086890;28;20019;-77
2022/11/08 10:05:42;;;;;;;2.53;1.23;;;;;;;12.34;70.03;100489.38;5085621;28;20039;-76
2022/11/08 10:08:27;;;;;;;3.10;1.20;;;;;;;12.41;71.02;100498.66;5085106;28;20475;-76
2022/11/08 10:11:26;;;;;;;3.58;1.15;;;;;;;12.47;70.79;100494.09;5088670;28;20031;-76
2022/11/08 10:14:08;;;;;;;5.25;1.98;;;;;;;12.54;70.79;100495.59;5088327;28;20040;-76
2022/11/08 10:16:57;;;;;;;3.22;1.20;;;;;;;12.62;71.10;100497.88;5087784;28;20029;-76
2022/11/08 10:19:33;;;;;;;4.85;1.20;;;;;;;12.69;69.63;100489.75;5086273;28;20024;-76
2022/11/08 10:22:04;;;;;;;3.00;1.10;;;;;;;12.75;69.45;100486.03;5071283;28;20383;-76
2022/11/08 10:25:03;;;;;;;3.97;1.30;;;;;;;12.80;69.29;100491.94;5085720;28;20020;-77
2022/11/08 10:27:40;;;;;;;3.95;1.25;;;;;;;12.88;68.58;100495.06;5082685;28;20518;-76
2022/11/08 10:30:16;;;;;;;3.42;1.17;;;;;;;12.95;68.80;100494.81;5087737;28;20016;-76
2022/11/08 10:32:42;;;;;;;4.50;1.10;;;;;;;13.00;68.27;100498.06;5088174;28;20031;-76
2022/11/08 10:35:31;;;;;;;2.03;1.10;;;;;;;13.01;68.06;100503.25;5086750;28;20028;-77
2022/11/08 10:37:58;;;;;;;3.30;1.10;;;;;;;13.04;68.79;100497.03;5087071;28;20062;-77
2022/11/08 10:40:56;;;;;;;2.97;1.33;;;;;;;13.07;68.89;100499.53;5087595;28;20023;-77
2022/11/08 10:43:28;;;;;;;4.40;1.27;;;;;;;13.08;68.22;100506.44;5086606;28;20028;-76
2022/11/08 10:45:53;;;;;;;2.83;1.23;;;;;;;13.07;66.96;100502.13;5086166;28;20028;-77
2022/11/08 10:48:19;;;;;;;5.00;1.63;;;;;;;13.06;67.57;100503.88;5086547;28;20780;-77
2022/11/08 10:50:48;;;;;;;1.95;1.20;;;;;;;13.08;68.07;100502.97;5087204;28;20119;-78
2022/11/08 10:53:25;;;;;;;3.30;1.20;;;;;;;13.09;68.65;100513.38;5087615;28;20031;-77
2022/11/08 10:55:57;;;;;;;2.88;1.20;;;;;;;13.08;67.59;100514.28;5085041;28;20039;-76
2022/11/08 10:58:40;;;;;;;2.17;1.00;;;;;;;13.09;68.31;100500.31;5085059;28;20024;-77
2022/11/08 11:01:11;;;;;;;3.33;1.25;;;;;;;13.12;68.03;100501.94;5086942;28;20046;-77
2022/11/08 11:03:36;;;;;;;3.75;1.10;;;;;;;13.14;67.39;100506.19;5087552;28;20157;-77
2022/11/08 11:06:06;;;;;;;2.97;1.25;;;;;;;13.18;66.83;100497.28;5085743;28;20119;-77
2022/11/08 11:08:32;;;;;;;2.53;1.00;;;;;;;13.25;67.85;100499.66;5087000;28;20036;-77
2022/11/08 11:11:33;;;;;;;4.50;1.20;;;;;;;13.29;67.94;100504.69;5087325;28;20028;-77
2022/11/08 11:14:16;;;;;;;2.13;1.13;;;;;;;13.30;67.25;100485.47;5086560;28;20024;-76
2022/11/08 11:17:03;;;;;;;4.40;1.48;;;;;;;13.34;67.90;100489.66;5084170;28;20032;-76
2022/11/08 11:19:29;;;;;;;3.53;1.30;;;;;;;13.37;65.74;100483.44;5085950;28;20031;-77
2022/11/08 11:22:13;;;;;;;3.85;1.40;;;;;;;13.38;67.06;100472.09;5084373;28;20061;-77
2022/11/08 11:24:48;;;;;;;2.28;1.10;;;;;;;13.41;66.53;100469.38;5084956;28;20035;-77
2022/11/08 11:27:22;;;;;;;2.20;1.10;;;;;;;13.43;67.28;100456.22;5085846;28;20062;-77
2022/11/08 11:29:47;;;;;;;2.75;1.30;;;;;;;13.46;65.94;100458.72;5083768;28;20055;-76
2022/11/08 11:32:54;;;;;;;3.22;1.33;;;;;;;13.49;67.55;100450.75;5084927;28;20109;-77
2022/11/08 11:35:20;;;;;;;2.72;1.23;;;;;;;13.53;65.75;100452.31;5085224;28;20471;-76
2022/11/08 11:37:47;;;;;;;3.50;1.00;;;;;;;13.57;66.41;100446.03;5087424;28;20483;-77
2022/11/08 11:40:36;;;;;;;2.40;1.10;;;;;;;13.63;66.72;100450.97;5083556;28;20075;-76
2022/11/08 11:43:07;;;;;;;3.72;1.20;;;;;;;13.66;65.18;100440.38;5084344;28;20554;-77
2022/11/08 11:45:46;;;;;;;3.28;1.30;;;;;;;13.73;66.23;100427.03;5084718;28;20028;-76
2022/11/08 11:48:27;;;;;;;2.20;1.15;;;;;;;13.74;65.99;100426.13;5086765;28;20059;-77
2022/11/08 11:50:53;;;;;;;;;;;;;;;13.77;67.25;100436.41;5084786;28;20039;-77
2022/11/08 11:53:35;;;;;;;3.58;1.20;;;;;;;13.75;65.20;100443.50;5086294;28;19915;-77